Petersburg, VA

8:06 AM EST on December 19, 2014 (GMT -0500)
Richmond International | Change Station
CLOSE
Current Station
Airport
Location: Richmond,
Elevation: 161 ft
Nearby Weather Stations

Elev 161 ft 37.51 °N, 77.32 °W | Updated 12 minutes ago

Clear
Clear
32 °F
Feels Like 28 °F
N
5
Wind Variable Wind from NW

Today
High -- | Low -- °F
--% Chance of Precip.
Yesterday
High -- | Low -- °F
Precip. -- in
7:18 AM 4:54 PM
Waning Crescent, 8% visible
Pressure 30.18 in
Visibility 10.0 miles
Clouds Few 9000 ft
Windchill 28 °F
Dew Point 23 °F
Humidity 69%
Rainfall 0.00 in
Snow Depth Not available.
UV 0 out of 12
Pollen .10 out of 12
Air Quality Not available.
Flu Activity Not available.
METAR KRIC 191254Z 32004KT 10SM FEW090 00/M05 A3016 RMK AO2 SLP219 T00001050 $

More Conditions Fewer Conditions

Pressure 30.18 in
Visibility 10.0 miles
Clouds Few 9000 ft
Windchill 28 °F
Dew Point 23 °F
Humidity 69%
Rainfall 0.00 in
Snow Depth Not available.
UV 0 out of 12
Pollen .10 out of 12
Air Quality Not available.
Flu Activity Not available.
METAR KRIC 191254Z 32004KT 10SM FEW090 00/M05 A3016 RMK AO2 SLP219 T00001050 $

More Conditions Fewer Conditions

10-Day Weather Forecast

Almanac

Astronomy

Dec. 19, 2014 Rise Set
Actual Time
Civil Twilight
Nautical Twilight
Astronomical Twilight
Moon
Length of Visible Light
Length of Day
Tomorrow will be .
, % of the Moon is Illuminated

Today's Extremes

State Highs State Lows

Community

WunderPhotos

Upload Photos

1,778,983 photos uploaded!

WunderBlogs® & News

Nearby

Air Quality

  Air Quality AQ Index Pollutant
Not available.

Snow Depth

Station Depth Elevation

Earthquake Activity

City Distance Mag. Time & Date
Minimum magnitude displayed is 2.5.

Coastal Water Temperatures

Place Temperature

Nearby Weather Stations